createdAt,value
2022-12-23T00:00:16.345Z,54.97
2022-12-23T00:02:43.606Z,56.78
2022-12-23T00:05:37.353Z,58.85
2022-12-23T00:08:39.638Z,57.33
2022-12-23T00:11:20.515Z,58.15
2022-12-23T00:14:05.939Z,57.13
2022-12-23T00:16:36.157Z,57.35
2022-12-23T00:19:03.151Z,57.88
2022-12-23T00:21:30.349Z,61.70
2022-12-23T00:23:57.205Z,58.55
2022-12-23T00:26:27.525Z,61.88
2022-12-23T00:28:58.763Z,64.15
2022-12-23T00:31:26.148Z,63.00
2022-12-23T00:33:54.402Z,66.35
2022-12-23T00:36:44.665Z,65.63
2022-12-23T00:40:06.793Z,60.85
2022-12-23T00:42:56.040Z,60.78
2022-12-23T00:45:22.886Z,64.97
2022-12-23T00:48:19.684Z,61.95
2022-12-23T00:50:46.787Z,60.83
2022-12-23T00:53:34.742Z,64.50
2022-12-23T00:56:15.352Z,64.53
2022-12-23T00:58:42.421Z,64.60
2022-12-23T01:01:28.332Z,61.35
2022-12-23T01:04:33.683Z,62.58
2022-12-23T01:07:14.439Z,60.35
2022-12-23T01:09:41.371Z,65.50
2022-12-23T01:12:08.539Z,62.33
2022-12-23T01:14:35.679Z,60.88
2022-12-23T01:17:02.832Z,62.17
2022-12-23T01:19:29.875Z,64.00
2022-12-23T01:21:56.892Z,59.67
2022-12-23T01:24:30.629Z,61.65
2022-12-23T01:26:57.672Z,60.35
2022-12-23T01:29:25.470Z,62.78
2022-12-23T01:31:52.515Z,63.55
2022-12-23T01:34:19.990Z,58.03
2022-12-23T01:37:06.727Z,60.72
2022-12-23T01:40:07.761Z,55.53
2022-12-23T01:42:48.296Z,66.28
2022-12-23T01:45:21.569Z,62.10
2022-12-23T01:48:03.153Z,62.37
2022-12-23T01:50:36.361Z,59.83
2022-12-23T01:53:34.820Z,61.73
2022-12-23T01:56:24.026Z,62.55
2022-12-23T01:58:54.736Z,63.22
2022-12-23T02:01:40.853Z,61.50
2022-12-23T02:04:31.695Z,63.10
2022-12-23T02:07:31.679Z,61.75
2022-12-23T02:09:59.461Z,55.75
2022-12-23T02:12:37.242Z,60.80
2022-12-23T02:15:32.403Z,65.22
2022-12-23T02:18:05.539Z,63.20
2022-12-23T02:21:11.314Z,60.57
2022-12-23T02:24:29.742Z,59.90
2022-12-23T02:27:16.384Z,63.17
2022-12-23T02:29:55.614Z,60.85
2022-12-23T02:32:48.637Z,56.30
2022-12-23T02:35:42.494Z,62.22
2022-12-23T02:38:43.719Z,66.10
2022-12-23T02:41:59.814Z,60.72
2022-12-23T02:44:47.585Z,61.90
2022-12-23T02:47:25.025Z,60.60
2022-12-23T02:49:57.074Z,66.15
2022-12-23T02:52:31.778Z,65.30
2022-12-23T02:55:35.883Z,60.83
2022-12-23T02:58:07.890Z,67.85
2022-12-23T03:00:38.661Z,70.00
2022-12-23T03:03:05.806Z,69.60
2022-12-23T03:05:58.789Z,66.05
2022-12-23T03:09:00.765Z,65.53
2022-12-23T03:12:07.775Z,69.68
2022-12-23T03:15:15.795Z,72.47
2022-12-23T03:17:52.755Z,69.85
2022-12-23T03:20:30.869Z,69.65
2022-12-23T03:23:26.038Z,66.85
2022-12-23T03:26:03.774Z,71.30
2022-12-23T03:28:39.570Z,67.68
2022-12-23T03:31:11.447Z,68.53
2022-12-23T03:33:44.481Z,72.25
2022-12-23T03:36:53.816Z,69.95
2022-12-23T03:40:00.762Z,71.63
2022-12-23T03:42:47.957Z,69.28
2022-12-23T03:45:40.826Z,66.72
2022-12-23T03:48:31.910Z,71.05
2022-12-23T03:51:04.389Z,69.47
2022-12-23T03:53:58.841Z,74.90
2022-12-23T03:56:45.674Z,68.55
2022-12-23T03:59:22.030Z,71.90
2022-12-23T04:02:24.071Z,77.22
2022-12-23T04:05:34.812Z,71.55
2022-12-23T04:08:28.952Z,73.03
2022-12-23T04:11:07.432Z,73.97
2022-12-23T04:13:38.812Z,71.63
2022-12-23T04:16:07.996Z,75.85
2022-12-23T04:18:39.850Z,75.00
2022-12-23T04:21:10.279Z,77.10
2022-12-23T04:26:23.659Z,76.90
2022-12-23T04:29:15.784Z,78.47
2022-12-23T04:31:51.678Z,77.13
2022-12-23T04:34:19.233Z,75.65
2022-12-23T04:37:18.956Z,78.32
2022-12-23T04:43:36.603Z,76.00
2022-12-23T04:46:30.996Z,73.70
2022-12-23T04:49:12.016Z,71.07
2022-12-23T04:51:41.085Z,76.47
2022-12-23T04:57:07.288Z,70.30
2022-12-23T04:59:43.517Z,76.15
2022-12-23T05:02:11.921Z,75.50
2022-12-23T05:05:09.830Z,74.07
2022-12-23T05:08:06.177Z,73.07
2022-12-23T05:10:36.090Z,73.75
2022-12-23T05:13:04.730Z,74.60
2022-12-23T05:15:35.490Z,78.97
2022-12-23T05:18:07.680Z,75.87
2022-12-23T05:20:35.276Z,77.70
2022-12-23T05:23:19.422Z,74.55
2022-12-23T05:25:54.065Z,78.88
2022-12-23T05:28:28.214Z,78.82
2022-12-23T05:34:07.557Z,74.43
2022-12-23T05:40:34.056Z,77.97
2022-12-23T05:43:47.267Z,72.95
2022-12-23T05:46:50.411Z,78.63
2022-12-23T05:49:13.344Z,77.50
2022-12-23T05:51:57.799Z,78.63
2022-12-23T05:54:35.243Z,78.03
2022-12-23T05:57:08.396Z,84.43
2022-12-23T05:59:49.363Z,82.72
2022-12-23T06:02:31.528Z,83.20
2022-12-23T06:05:31.824Z,78.50
2022-12-23T06:08:32.211Z,76.35
2022-12-23T06:11:10.120Z,77.05
2022-12-23T06:13:39.863Z,75.72
2022-12-23T06:16:31.220Z,77.25
2022-12-23T06:19:33.810Z,74.80
2022-12-23T06:22:22.992Z,81.13
2022-12-23T06:25:27.231Z,82.03
2022-12-23T06:28:13.462Z,84.90
2022-12-23T06:30:45.733Z,84.35
2022-12-23T06:33:34.486Z,85.90
2022-12-23T06:36:10.071Z,87.30
2022-12-23T06:39:03.912Z,78.78
2022-12-23T06:42:14.161Z,80.60
2022-12-23T06:45:16.783Z,76.03
2022-12-23T06:47:52.699Z,81.65
2022-12-23T06:50:50.726Z,79.18
2022-12-23T06:54:02.598Z,77.18
2022-12-23T06:56:48.525Z,76.05
2022-12-23T06:59:17.696Z,84.35
2022-12-23T07:02:20.510Z,79.75
2022-12-23T07:05:25.064Z,75.82
2022-12-23T07:10:44.885Z,84.35
2022-12-23T07:13:16.045Z,83.28
2022-12-23T07:15:46.917Z,77.97
2022-12-23T07:18:23.825Z,83.97
2022-12-23T07:20:54.138Z,79.82
2022-12-23T07:23:25.734Z,84.55
2022-12-23T07:28:45.173Z,78.10
2022-12-23T07:31:24.103Z,76.50
2022-12-23T07:34:45.812Z,71.88
2022-12-23T07:37:51.381Z,69.65
2022-12-23T07:40:47.988Z,71.55
2022-12-23T07:43:22.009Z,69.68
2022-12-23T07:50:03.506Z,71.10
2022-12-23T07:52:31.354Z,76.15
2022-12-23T07:55:01.319Z,69.25
2022-12-23T07:57:49.314Z,73.75
2022-12-23T08:04:31.483Z,74.78
2022-12-23T08:07:35.869Z,76.07
2022-12-23T08:10:48.034Z,88.78
2022-12-23T08:14:14.266Z,79.53
2022-12-23T08:17:06.589Z,77.97
2022-12-23T08:19:35.459Z,81.05
2022-12-23T08:22:30.606Z,79.63
2022-12-23T08:28:28.653Z,77.65
2022-12-23T08:31:52.583Z,73.47
2022-12-23T08:34:43.235Z,76.50
2022-12-23T08:37:21.384Z,73.93
2022-12-23T08:40:02.832Z,71.53
2022-12-23T08:42:37.329Z,70.17
2022-12-23T08:45:19.202Z,73.10
2022-12-23T08:48:09.322Z,70.18
2022-12-23T08:50:53.909Z,70.93
2022-12-23T08:53:46.055Z,72.40
2022-12-23T08:56:28.251Z,74.78
2022-12-23T08:59:19.531Z,71.45
2022-12-23T09:01:55.654Z,68.07
2022-12-23T09:04:46.953Z,68.45
2022-12-23T09:08:10.280Z,69.72
2022-12-23T09:11:03.784Z,68.18
2022-12-23T09:14:26.727Z,64.03
2022-12-23T09:18:22.618Z,64.78
2022-12-23T09:21:33.901Z,70.25
2022-12-23T09:24:42.645Z,71.57
2022-12-23T09:27:49.991Z,71.22
2022-12-23T10:28:06.949Z,74.95
2022-12-23T10:31:39.331Z,73.57
2022-12-23T10:33:38.486Z,69.57
2022-12-23T10:38:38.533Z,76.50
2022-12-23T10:41:57.321Z,80.80
2022-12-23T10:49:14.703Z,81.05
2022-12-23T10:58:11.527Z,78.50
2022-12-23T11:01:26.797Z,76.03
2022-12-23T11:04:53.554Z,78.97
2022-12-23T11:08:05.887Z,75.55
2022-12-23T11:11:24.742Z,81.68
2022-12-23T11:18:47.315Z,75.63
2022-12-23T11:21:49.165Z,74.90
2022-12-23T11:24:57.049Z,75.53
2022-12-23T11:31:27.583Z,79.55
2022-12-23T11:34:52.451Z,76.85
2022-12-23T12:00:33.107Z,73.60
2022-12-23T12:03:20.797Z,74.82
2022-12-23T12:06:17.046Z,75.25
2022-12-23T12:09:00.243Z,71.10
2022-12-23T12:11:39.830Z,75.07
2022-12-23T12:14:11.150Z,73.57
2022-12-23T12:16:47.815Z,76.57
2022-12-23T12:19:26.215Z,78.00
2022-12-23T12:21:58.280Z,75.85
2022-12-23T12:24:48.731Z,72.13
2022-12-23T12:27:49.055Z,73.13
2022-12-23T12:30:40.213Z,71.78
2022-12-23T12:34:04.100Z,72.82
2022-12-23T12:36:59.830Z,68.07
2022-12-23T12:39:42.080Z,73.13
2022-12-23T12:42:14.675Z,70.05
2022-12-23T12:45:16.038Z,72.78
2022-12-23T12:48:46.086Z,69.97
2022-12-23T12:51:56.059Z,67.93
2022-12-23T12:54:50.965Z,71.55
2022-12-23T12:57:39.090Z,72.40
2022-12-23T13:00:22.465Z,71.00
2022-12-23T13:03:01.610Z,69.68
2022-12-23T13:05:55.077Z,71.43
2022-12-23T13:08:48.592Z,70.55
2022-12-23T13:11:45.282Z,71.97
2022-12-23T13:14:15.777Z,76.05
2022-12-23T13:17:03.209Z,71.47
2022-12-23T13:20:17.333Z,67.43
2022-12-23T13:22:47.484Z,72.93
2022-12-23T13:25:46.067Z,73.90
2022-12-23T13:29:16.164Z,72.28
2022-12-23T13:32:29.353Z,71.07
2022-12-23T13:35:15.453Z,72.20
2022-12-23T13:38:18.972Z,72.65
2022-12-23T13:41:07.202Z,71.90
2022-12-23T13:43:48.390Z,73.38
2022-12-23T13:46:38.165Z,72.30
2022-12-23T13:49:48.111Z,71.32
2022-12-23T13:53:04.116Z,72.30
2022-12-23T13:55:50.751Z,72.63
2022-12-23T13:58:22.159Z,72.97
2022-12-23T14:01:32.199Z,73.03
2022-12-23T14:04:42.128Z,69.55
2022-12-23T14:07:39.200Z,71.20
2022-12-23T14:10:12.979Z,65.60
2022-12-23T14:15:24.789Z,62.60
2022-12-23T14:18:25.534Z,67.55
2022-12-23T14:21:34.489Z,65.65
2022-12-23T14:24:20.317Z,65.78
2022-12-23T14:27:38.108Z,64.57
2022-12-23T14:30:45.898Z,64.60
2022-12-23T14:33:40.158Z,61.97
2022-12-23T14:36:26.929Z,66.72
2022-12-23T14:39:17.291Z,65.50
2022-12-23T14:41:58.749Z,63.88
2022-12-23T14:44:50.145Z,66.70
2022-12-23T14:47:53.123Z,65.47
2022-12-23T14:50:56.287Z,61.58
2022-12-23T14:53:38.161Z,68.60
2022-12-23T14:56:08.477Z,67.28
2022-12-23T14:58:55.184Z,68.82
2022-12-23T15:02:28.230Z,66.68
2022-12-23T15:05:36.198Z,67.63
2022-12-23T15:08:45.145Z,65.80
2022-12-23T15:11:48.149Z,62.90
2022-12-23T15:14:34.689Z,63.90
2022-12-23T15:17:35.904Z,66.95
2022-12-23T15:20:19.383Z,66.97
2022-12-23T15:22:48.183Z,65.63
2022-12-23T15:25:40.239Z,69.88
2022-12-23T15:28:23.990Z,69.65
2022-12-23T15:31:11.199Z,70.50
2022-12-23T15:34:02.954Z,73.95
2022-12-23T15:36:35.695Z,76.00
2022-12-23T15:39:10.305Z,72.30
2022-12-23T15:41:47.974Z,78.25
2022-12-23T15:44:38.289Z,77.80
2022-12-23T15:47:49.178Z,74.13
2022-12-23T15:50:31.061Z,73.13
2022-12-23T15:53:05.911Z,79.10
2022-12-23T15:55:34.952Z,74.25
2022-12-23T15:58:22.211Z,74.97
2022-12-23T16:01:29.929Z,78.57
2022-12-23T16:04:39.253Z,80.07
2022-12-23T16:07:46.198Z,82.07
2022-12-23T16:10:26.885Z,77.60
2022-12-23T16:12:54.448Z,68.45
2022-12-23T16:15:46.261Z,83.13
2022-12-23T16:18:34.495Z,82.00
2022-12-23T16:21:03.697Z,83.30
2022-12-23T16:23:37.460Z,78.82
2022-12-23T16:26:04.846Z,84.32
2022-12-23T16:28:44.643Z,85.80
2022-12-23T16:31:16.661Z,80.25
2022-12-23T16:33:49.345Z,87.18
2022-12-23T16:36:25.875Z,85.45
2022-12-23T16:39:00.329Z,86.10
2022-12-23T16:41:27.665Z,87.32
2022-12-23T16:43:55.069Z,89.07
2022-12-23T16:46:48.248Z,90.72
2022-12-23T16:49:33.853Z,84.47
2022-12-23T16:52:02.586Z,95.35
2022-12-23T16:54:30.153Z,86.85
2022-12-23T16:56:57.385Z,95.50
2022-12-23T16:59:47.249Z,90.00
2022-12-23T17:02:48.409Z,91.07
2022-12-23T17:05:42.696Z,85.80
2022-12-23T17:08:43.203Z,90.95
2022-12-23T17:11:45.386Z,87.70
2022-12-23T17:14:42.572Z,90.63
2022-12-23T17:17:16.168Z,85.05
2022-12-23T17:19:43.541Z,89.30
2022-12-23T17:22:13.358Z,90.05
2022-12-23T17:25:00.363Z,88.30
2022-12-23T17:27:41.438Z,86.45
2022-12-23T17:30:16.371Z,89.60
2022-12-23T17:32:51.184Z,82.60
2022-12-23T17:35:20.050Z,88.57
2022-12-23T17:37:47.378Z,85.60
2022-12-23T17:40:16.886Z,92.75
2022-12-23T17:42:44.669Z,88.93
2022-12-23T17:45:39.344Z,87.70
2022-12-23T17:48:40.353Z,86.07
2022-12-23T17:51:34.638Z,81.22
2022-12-23T17:54:02.453Z,85.15
2022-12-23T17:56:30.973Z,86.72
2022-12-23T17:58:59.351Z,88.78
2022-12-23T18:01:46.383Z,90.25
2022-12-23T18:04:47.276Z,85.50
2022-12-23T18:07:38.924Z,84.00
2022-12-23T18:10:06.417Z,80.85
2022-12-23T18:12:39.100Z,85.72
2022-12-23T18:15:07.736Z,82.25
2022-12-23T18:17:34.962Z,82.10
2022-12-23T18:20:04.059Z,82.50
2022-12-23T18:22:31.424Z,84.75
2022-12-23T18:24:59.608Z,83.63
2022-12-23T18:27:49.401Z,82.03
2022-12-23T18:30:50.349Z,81.18
2022-12-23T18:33:31.314Z,79.47
2022-12-23T18:35:58.705Z,83.40
2022-12-23T18:38:26.003Z,80.97
2022-12-23T18:40:54.963Z,82.40
2022-12-23T18:43:24.515Z,80.07
2022-12-23T18:46:11.404Z,80.43
2022-12-23T18:49:03.725Z,78.22
2022-12-23T18:51:31.102Z,79.30
2022-12-23T18:53:59.911Z,72.00
2022-12-23T18:56:30.316Z,79.20
2022-12-23T18:58:57.495Z,85.47
2022-12-23T19:01:25.398Z,83.80
2022-12-23T19:04:12.404Z,90.18
2022-12-23T19:07:13.303Z,84.65
2022-12-23T19:09:53.991Z,82.80
2022-12-23T19:12:21.002Z,80.40
2022-12-23T19:14:48.207Z,82.20
2022-12-23T19:17:50.342Z,78.75
2022-12-23T19:20:31.774Z,79.53
2022-12-23T19:22:59.022Z,80.05
2022-12-23T19:25:54.524Z,84.18
2022-12-23T19:28:37.248Z,80.88
2022-12-23T19:31:16.124Z,83.00
2022-12-23T19:33:46.180Z,82.03
2022-12-23T19:36:22.858Z,85.78
2022-12-23T19:38:50.785Z,83.07
2022-12-23T19:41:18.840Z,88.32
2022-12-23T19:43:47.396Z,83.40
2022-12-23T19:46:34.534Z,88.05
2022-12-23T19:49:35.714Z,81.60
2022-12-23T19:52:16.021Z,83.68
2022-12-23T19:54:43.173Z,81.78
2022-12-23T19:57:10.911Z,86.03
2022-12-23T19:59:38.079Z,90.95
2022-12-23T20:02:30.389Z,91.32
2022-12-23T20:05:31.363Z,87.00
2022-12-23T20:08:32.636Z,92.60
2022-12-23T20:11:39.371Z,88.28
2022-12-23T20:14:21.895Z,87.03
2022-12-23T20:16:49.546Z,85.80
2022-12-23T20:19:17.455Z,87.57
2022-12-23T20:21:47.828Z,98.38
2022-12-23T20:24:15.937Z,90.95
2022-12-23T20:26:56.685Z,95.90
2022-12-23T20:29:37.094Z,83.63
2022-12-23T20:32:24.409Z,93.75
2022-12-23T20:35:05.669Z,85.28
2022-12-23T20:37:52.501Z,85.45
2022-12-23T20:40:53.403Z,84.07
2022-12-23T20:44:23.899Z,85.15
2022-12-23T20:47:08.393Z,86.95
2022-12-23T20:50:09.389Z,92.45
2022-12-23T20:52:41.180Z,92.50
2022-12-23T20:55:08.656Z,93.57
2022-12-23T20:57:36.150Z,85.25
2022-12-23T21:00:07.249Z,85.55
2022-12-23T21:02:34.493Z,94.53
2022-12-23T21:05:14.508Z,92.90
2022-12-23T21:08:08.446Z,88.88
2022-12-23T21:11:09.368Z,91.65
2022-12-23T21:13:50.970Z,96.53
2022-12-23T21:16:18.656Z,88.75
2022-12-23T21:18:50.632Z,84.88
2022-12-23T21:21:17.768Z,97.50
2022-12-23T21:24:06.412Z,89.72
2022-12-23T21:26:55.435Z,90.00
2022-12-23T21:30:11.309Z,90.40
2022-12-23T21:33:52.590Z,89.18
2022-12-23T21:36:36.811Z,86.32
2022-12-23T21:39:19.422Z,90.47
2022-12-23T21:42:20.371Z,89.10
2022-12-23T21:45:21.350Z,89.43
2022-12-23T21:48:22.373Z,88.45
2022-12-23T21:51:15.079Z,93.47
2022-12-23T21:53:43.916Z,91.60
2022-12-23T21:56:16.206Z,96.15
2022-12-23T21:58:43.775Z,94.15
2022-12-23T22:01:19.006Z,90.00
2022-12-23T22:04:07.367Z,93.88
2022-12-23T22:07:08.433Z,97.00
2022-12-23T22:10:09.367Z,94.07
2022-12-23T22:13:10.432Z,88.78
2022-12-23T22:16:01.368Z,87.65
2022-12-23T22:18:42.730Z,90.20
2022-12-23T22:21:40.369Z,87.57
2022-12-23T22:24:21.170Z,87.43
2022-12-23T22:26:52.299Z,86.78
2022-12-23T22:29:20.610Z,90.82
2022-12-23T22:31:53.312Z,94.45
2022-12-23T22:34:24.937Z,90.28
2022-12-23T22:36:55.078Z,94.88
2022-12-23T22:39:42.558Z,94.07
2022-12-23T22:42:47.465Z,91.05
2022-12-23T22:45:29.092Z,90.97
2022-12-23T22:48:16.410Z,88.68
2022-12-23T22:51:32.289Z,94.15
2022-12-23T22:54:06.915Z,87.47
2022-12-23T22:56:39.480Z,94.78
2022-12-23T22:59:10.205Z,97.53
2022-12-23T23:01:57.472Z,95.03
2022-12-23T23:04:58.503Z,95.10
2022-12-23T23:07:39.316Z,93.22
2022-12-23T23:10:07.426Z,94.80
2022-12-23T23:12:34.567Z,93.95
2022-12-23T23:15:01.899Z,88.90
2022-12-23T23:17:29.585Z,91.18
2022-12-23T23:20:16.448Z,89.68
2022-12-23T23:23:17.526Z,86.25
2022-12-23T23:26:00.513Z,90.22
2022-12-23T23:28:47.435Z,85.95
2022-12-23T23:31:44.362Z,89.80
2022-12-23T23:34:13.027Z,86.63
2022-12-23T23:36:40.791Z,92.47
2022-12-23T23:39:28.482Z,94.50
2022-12-23T23:42:29.526Z,97.32
2022-12-23T23:45:30.516Z,95.60
2022-12-23T23:48:31.430Z,97.30
2022-12-23T23:51:12.976Z,97.90
2022-12-23T23:53:40.670Z,99.47
2022-12-23T23:56:09.017Z,102.95
2022-12-23T23:58:37.295Z,97.03
